sensor_id;sensor_type;location;lat;lon;timestamp;P1;durP1;ratioP1;P2;durP2;ratioP2
73776;SDS011;62088;50.240;2.696;2022-10-16T00:01:28;5.85;;;1.25;;
73776;SDS011;62088;50.240;2.696;2022-10-16T00:03:57;6.10;;;1.30;;
73776;SDS011;62088;50.240;2.696;2022-10-16T00:06:25;5.90;;;1.70;;
73776;SDS011;62088;50.240;2.696;2022-10-16T00:08:53;3.45;;;1.15;;
73776;SDS011;62088;50.240;2.696;2022-10-16T00:11:22;5.82;;;1.27;;
73776;SDS011;62088;50.240;2.696;2022-10-16T00:14:09;5.93;;;1.30;;
73776;SDS011;62088;50.240;2.696;2022-10-16T00:16:39;7.63;;;1.60;;
73776;SDS011;62088;50.240;2.696;2022-10-16T00:19:07;4.32;;;1.30;;
73776;SDS011;62088;50.240;2.696;2022-10-16T00:21:34;5.55;;;1.67;;
73776;SDS011;62088;50.240;2.696;2022-10-16T00:24:02;4.15;;;1.10;;
73776;SDS011;62088;50.240;2.696;2022-10-16T00:26:32;6.85;;;1.27;;
73776;SDS011;62088;50.240;2.696;2022-10-16T00:29:00;5.90;;;1.33;;
73776;SDS011;62088;50.240;2.696;2022-10-16T00:31:28;4.13;;;1.60;;
73776;SDS011;62088;50.240;2.696;2022-10-16T00:33:56;3.92;;;1.40;;
73776;SDS011;62088;50.240;2.696;2022-10-16T00:36:23;10.10;;;1.23;;
73776;SDS011;62088;50.240;2.696;2022-10-16T00:38:52;6.95;;;1.38;;
73776;SDS011;62088;50.240;2.696;2022-10-16T00:41:22;3.72;;;1.30;;
73776;SDS011;62088;50.240;2.696;2022-10-16T00:43:51;5.35;;;1.30;;
73776;SDS011;62088;50.240;2.696;2022-10-16T00:51:21;3.22;;;1.30;;
73776;SDS011;62088;50.240;2.696;2022-10-16T00:53:53;4.32;;;1.10;;
73776;SDS011;62088;50.240;2.696;2022-10-16T00:56:21;7.20;;;1.50;;
73776;SDS011;62088;50.240;2.696;2022-10-16T00:58:48;5.97;;;1.50;;
73776;SDS011;62088;50.240;2.696;2022-10-16T01:01:15;3.92;;;1.50;;
73776;SDS011;62088;50.240;2.696;2022-10-16T01:03:43;3.85;;;1.20;;
73776;SDS011;62088;50.240;2.696;2022-10-16T01:06:21;6.05;;;1.50;;
73776;SDS011;62088;50.240;2.696;2022-10-16T01:09:06;5.45;;;1.35;;
73776;SDS011;62088;50.240;2.696;2022-10-16T01:14:46;6.35;;;1.42;;
73776;SDS011;62088;50.240;2.696;2022-10-16T01:17:24;5.55;;;1.80;;
73776;SDS011;62088;50.240;2.696;2022-10-16T01:28:50;5.45;;;1.35;;
73776;SDS011;62088;50.240;2.696;2022-10-16T01:31:19;7.20;;;1.50;;
73776;SDS011;62088;50.240;2.696;2022-10-16T01:33:56;7.78;;;1.60;;
73776;SDS011;62088;50.240;2.696;2022-10-16T01:36:36;6.25;;;1.70;;
73776;SDS011;62088;50.240;2.696;2022-10-16T01:39:06;6.80;;;1.80;;
73776;SDS011;62088;50.240;2.696;2022-10-16T01:41:38;5.68;;;1.40;;
73776;SDS011;62088;50.240;2.696;2022-10-16T01:44:22;7.78;;;1.50;;
73776;SDS011;62088;50.240;2.696;2022-10-16T01:46:54;3.67;;;1.30;;
73776;SDS011;62088;50.240;2.696;2022-10-16T01:49:23;7.40;;;1.60;;
73776;SDS011;62088;50.240;2.696;2022-10-16T01:51:54;11.15;;;1.50;;
73776;SDS011;62088;50.240;2.696;2022-10-16T01:54:25;5.15;;;1.50;;
73776;SDS011;62088;50.240;2.696;2022-10-16T01:56:55;6.10;;;1.65;;
73776;SDS011;62088;50.240;2.696;2022-10-16T01:59:23;5.65;;;1.92;;
73776;SDS011;62088;50.240;2.696;2022-10-16T02:01:55;4.25;;;1.50;;
73776;SDS011;62088;50.240;2.696;2022-10-16T02:04:39;3.97;;;1.50;;
73776;SDS011;62088;50.240;2.696;2022-10-16T02:07:12;3.58;;;1.13;;
73776;SDS011;62088;50.240;2.696;2022-10-16T02:09:40;6.63;;;1.52;;
73776;SDS011;62088;50.240;2.696;2022-10-16T02:12:14;6.03;;;1.48;;
73776;SDS011;62088;50.240;2.696;2022-10-16T02:14:49;6.32;;;1.30;;
73776;SDS011;62088;50.240;2.696;2022-10-16T02:17:16;3.10;;;1.20;;
73776;SDS011;62088;50.240;2.696;2022-10-16T02:19:44;4.97;;;1.50;;
73776;SDS011;62088;50.240;2.696;2022-10-16T02:25:06;4.75;;;1.30;;
73776;SDS011;62088;50.240;2.696;2022-10-16T02:32:57;4.00;;;1.40;;
73776;SDS011;62088;50.240;2.696;2022-10-16T02:35:26;4.82;;;1.30;;
73776;SDS011;62088;50.240;2.696;2022-10-16T02:37:54;3.72;;;1.33;;
73776;SDS011;62088;50.240;2.696;2022-10-16T02:40:23;6.05;;;1.40;;
73776;SDS011;62088;50.240;2.696;2022-10-16T02:42:51;3.33;;;1.20;;
73776;SDS011;62088;50.240;2.696;2022-10-16T02:45:20;3.45;;;1.50;;
73776;SDS011;62088;50.240;2.696;2022-10-16T02:47:47;3.90;;;1.10;;
73776;SDS011;62088;50.240;2.696;2022-10-16T02:50:14;4.85;;;1.27;;
73776;SDS011;62088;50.240;2.696;2022-10-16T02:52:42;6.35;;;1.50;;
73776;SDS011;62088;50.240;2.696;2022-10-16T02:55:09;5.57;;;1.40;;
73776;SDS011;62088;50.240;2.696;2022-10-16T02:57:36;7.75;;;2.00;;
73776;SDS011;62088;50.240;2.696;2022-10-16T03:00:04;5.30;;;1.50;;
73776;SDS011;62088;50.240;2.696;2022-10-16T03:02:32;6.32;;;1.70;;
73776;SDS011;62088;50.240;2.696;2022-10-16T03:04:59;2.55;;;1.08;;
73776;SDS011;62088;50.240;2.696;2022-10-16T03:07:26;4.72;;;1.63;;
73776;SDS011;62088;50.240;2.696;2022-10-16T03:09:53;6.47;;;1.70;;
73776;SDS011;62088;50.240;2.696;2022-10-16T03:12:21;3.33;;;1.33;;
73776;SDS011;62088;50.240;2.696;2022-10-16T03:14:48;7.72;;;1.58;;
73776;SDS011;62088;50.240;2.696;2022-10-16T03:17:15;7.50;;;1.67;;
73776;SDS011;62088;50.240;2.696;2022-10-16T03:19:43;5.47;;;1.42;;
73776;SDS011;62088;50.240;2.696;2022-10-16T03:22:10;4.78;;;1.30;;
73776;SDS011;62088;50.240;2.696;2022-10-16T03:24:37;9.80;;;1.35;;
73776;SDS011;62088;50.240;2.696;2022-10-16T03:27:04;6.78;;;1.80;;
73776;SDS011;62088;50.240;2.696;2022-10-16T03:29:31;5.07;;;1.33;;
73776;SDS011;62088;50.240;2.696;2022-10-16T03:31:59;5.97;;;1.63;;
73776;SDS011;62088;50.240;2.696;2022-10-16T03:34:26;8.00;;;1.52;;
73776;SDS011;62088;50.240;2.696;2022-10-16T03:36:54;5.80;;;1.27;;
73776;SDS011;62088;50.240;2.696;2022-10-16T03:39:21;6.60;;;1.63;;
73776;SDS011;62088;50.240;2.696;2022-10-16T03:41:48;6.10;;;1.55;;
73776;SDS011;62088;50.240;2.696;2022-10-16T03:44:15;4.75;;;1.52;;
73776;SDS011;62088;50.240;2.696;2022-10-16T03:46:42;4.53;;;1.60;;
73776;SDS011;62088;50.240;2.696;2022-10-16T03:49:10;6.47;;;1.58;;
73776;SDS011;62088;50.240;2.696;2022-10-16T03:51:38;6.57;;;1.50;;
73776;SDS011;62088;50.240;2.696;2022-10-16T03:54:05;6.88;;;1.90;;
73776;SDS011;62088;50.240;2.696;2022-10-16T03:56:32;4.32;;;1.27;;
73776;SDS011;62088;50.240;2.696;2022-10-16T03:58:59;7.97;;;1.63;;
73776;SDS011;62088;50.240;2.696;2022-10-16T04:01:26;5.18;;;1.40;;
73776;SDS011;62088;50.240;2.696;2022-10-16T04:03:53;5.72;;;1.70;;
73776;SDS011;62088;50.240;2.696;2022-10-16T04:06:20;5.15;;;1.73;;
73776;SDS011;62088;50.240;2.696;2022-10-16T04:08:47;5.55;;;1.73;;
73776;SDS011;62088;50.240;2.696;2022-10-16T04:11:14;9.02;;;1.70;;
73776;SDS011;62088;50.240;2.696;2022-10-16T04:13:41;4.85;;;1.80;;
73776;SDS011;62088;50.240;2.696;2022-10-16T04:16:08;4.97;;;1.80;;
73776;SDS011;62088;50.240;2.696;2022-10-16T04:18:34;4.78;;;1.65;;
73776;SDS011;62088;50.240;2.696;2022-10-16T04:21:02;8.07;;;1.83;;
73776;SDS011;62088;50.240;2.696;2022-10-16T04:23:30;5.00;;;1.63;;
73776;SDS011;62088;50.240;2.696;2022-10-16T04:25:57;11.02;;;2.10;;
73776;SDS011;62088;50.240;2.696;2022-10-16T04:28:25;3.63;;;1.85;;
73776;SDS011;62088;50.240;2.696;2022-10-16T04:30:53;4.68;;;1.77;;
73776;SDS011;62088;50.240;2.696;2022-10-16T04:33:20;6.45;;;1.77;;
73776;SDS011;62088;50.240;2.696;2022-10-16T04:35:47;8.07;;;2.30;;
73776;SDS011;62088;50.240;2.696;2022-10-16T04:38:14;10.20;;;2.08;;
73776;SDS011;62088;50.240;2.696;2022-10-16T04:40:41;7.95;;;2.08;;
73776;SDS011;62088;50.240;2.696;2022-10-16T04:43:09;6.57;;;1.70;;
73776;SDS011;62088;50.240;2.696;2022-10-16T04:45:36;7.53;;;1.90;;
73776;SDS011;62088;50.240;2.696;2022-10-16T04:48:03;5.70;;;1.70;;
73776;SDS011;62088;50.240;2.696;2022-10-16T04:50:30;6.75;;;1.80;;
73776;SDS011;62088;50.240;2.696;2022-10-16T04:53:04;5.47;;;1.60;;
73776;SDS011;62088;50.240;2.696;2022-10-16T04:55:31;5.53;;;1.77;;
73776;SDS011;62088;50.240;2.696;2022-10-16T04:57:58;5.45;;;2.30;;
73776;SDS011;62088;50.240;2.696;2022-10-16T05:00:25;6.30;;;1.48;;
73776;SDS011;62088;50.240;2.696;2022-10-16T05:02:52;4.95;;;1.67;;
73776;SDS011;62088;50.240;2.696;2022-10-16T05:05:20;6.10;;;1.70;;
73776;SDS011;62088;50.240;2.696;2022-10-16T05:07:47;3.70;;;1.50;;
73776;SDS011;62088;50.240;2.696;2022-10-16T05:10:15;6.28;;;2.03;;
73776;SDS011;62088;50.240;2.696;2022-10-16T05:12:43;4.28;;;1.55;;
73776;SDS011;62088;50.240;2.696;2022-10-16T05:15:10;5.22;;;1.50;;
73776;SDS011;62088;50.240;2.696;2022-10-16T05:17:37;9.43;;;1.77;;
73776;SDS011;62088;50.240;2.696;2022-10-16T05:20:10;4.40;;;1.50;;
73776;SDS011;62088;50.240;2.696;2022-10-16T05:22:37;4.65;;;1.58;;
73776;SDS011;62088;50.240;2.696;2022-10-16T05:25:04;8.15;;;2.00;;
73776;SDS011;62088;50.240;2.696;2022-10-16T05:27:32;4.97;;;1.38;;
73776;SDS011;62088;50.240;2.696;2022-10-16T05:29:59;5.70;;;1.45;;
73776;SDS011;62088;50.240;2.696;2022-10-16T05:32:26;4.68;;;1.25;;
73776;SDS011;62088;50.240;2.696;2022-10-16T05:34:53;4.75;;;1.48;;
73776;SDS011;62088;50.240;2.696;2022-10-16T05:37:19;7.20;;;1.55;;
73776;SDS011;62088;50.240;2.696;2022-10-16T05:39:46;7.03;;;1.83;;
73776;SDS011;62088;50.240;2.696;2022-10-16T05:42:13;5.45;;;1.58;;
73776;SDS011;62088;50.240;2.696;2022-10-16T05:44:41;8.13;;;1.60;;
73776;SDS011;62088;50.240;2.696;2022-10-16T05:47:08;4.65;;;1.40;;
73776;SDS011;62088;50.240;2.696;2022-10-16T05:49:37;6.13;;;1.58;;
73776;SDS011;62088;50.240;2.696;2022-10-16T05:52:06;4.00;;;1.30;;
73776;SDS011;62088;50.240;2.696;2022-10-16T05:54:33;4.32;;;1.30;;
73776;SDS011;62088;50.240;2.696;2022-10-16T05:57:00;3.67;;;1.48;;
73776;SDS011;62088;50.240;2.696;2022-10-16T05:59:28;5.55;;;1.45;;
73776;SDS011;62088;50.240;2.696;2022-10-16T06:01:55;5.88;;;1.73;;
73776;SDS011;62088;50.240;2.696;2022-10-16T06:04:22;7.43;;;1.50;;
73776;SDS011;62088;50.240;2.696;2022-10-16T06:06:49;3.90;;;1.40;;
73776;SDS011;62088;50.240;2.696;2022-10-16T06:09:16;10.05;;;1.85;;
73776;SDS011;62088;50.240;2.696;2022-10-16T06:11:43;6.60;;;1.30;;
73776;SDS011;62088;50.240;2.696;2022-10-16T06:14:10;3.85;;;1.38;;
73776;SDS011;62088;50.240;2.696;2022-10-16T06:16:37;3.10;;;1.48;;
73776;SDS011;62088;50.240;2.696;2022-10-16T06:19:04;5.20;;;1.50;;
73776;SDS011;62088;50.240;2.696;2022-10-16T06:21:35;5.07;;;1.40;;
73776;SDS011;62088;50.240;2.696;2022-10-16T06:24:02;5.00;;;1.65;;
73776;SDS011;62088;50.240;2.696;2022-10-16T06:26:30;4.20;;;1.38;;
73776;SDS011;62088;50.240;2.696;2022-10-16T06:28:58;3.53;;;1.23;;
73776;SDS011;62088;50.240;2.696;2022-10-16T06:31:26;3.45;;;1.23;;
73776;SDS011;62088;50.240;2.696;2022-10-16T06:33:57;4.95;;;1.50;;
73776;SDS011;62088;50.240;2.696;2022-10-16T06:36:24;3.55;;;1.50;;
73776;SDS011;62088;50.240;2.696;2022-10-16T06:38:52;5.40;;;1.52;;
73776;SDS011;62088;50.240;2.696;2022-10-16T06:41:20;4.10;;;1.30;;
73776;SDS011;62088;50.240;2.696;2022-10-16T06:43:48;5.55;;;1.70;;
73776;SDS011;62088;50.240;2.696;2022-10-16T06:46:16;5.95;;;1.60;;
73776;SDS011;62088;50.240;2.696;2022-10-16T06:48:44;6.45;;;1.80;;
73776;SDS011;62088;50.240;2.696;2022-10-16T06:51:15;6.18;;;1.92;;
73776;SDS011;62088;50.240;2.696;2022-10-16T06:53:47;5.22;;;1.77;;
73776;SDS011;62088;50.240;2.696;2022-10-16T06:56:32;5.88;;;1.70;;
73776;SDS011;62088;50.240;2.696;2022-10-16T06:59:00;5.13;;;1.60;;
73776;SDS011;62088;50.240;2.696;2022-10-16T07:01:27;5.13;;;1.80;;
73776;SDS011;62088;50.240;2.696;2022-10-16T07:03:55;5.90;;;1.80;;
73776;SDS011;62088;50.240;2.696;2022-10-16T07:06:22;6.32;;;2.10;;
73776;SDS011;62088;50.240;2.696;2022-10-16T07:08:51;4.63;;;1.90;;
73776;SDS011;62088;50.240;2.696;2022-10-16T07:11:19;5.35;;;1.80;;
73776;SDS011;62088;50.240;2.696;2022-10-16T07:13:48;6.10;;;2.20;;
73776;SDS011;62088;50.240;2.696;2022-10-16T07:16:24;4.65;;;2.17;;
73776;SDS011;62088;50.240;2.696;2022-10-16T07:18:54;7.53;;;1.80;;
73776;SDS011;62088;50.240;2.696;2022-10-16T07:21:33;4.45;;;1.65;;
73776;SDS011;62088;50.240;2.696;2022-10-16T07:24:03;7.05;;;2.10;;
73776;SDS011;62088;50.240;2.696;2022-10-16T07:26:33;9.77;;;2.60;;
73776;SDS011;62088;50.240;2.696;2022-10-16T07:29:01;9.30;;;2.10;;
73776;SDS011;62088;50.240;2.696;2022-10-16T07:31:30;5.30;;;1.80;;
73776;SDS011;62088;50.240;2.696;2022-10-16T07:33:58;5.18;;;1.88;;
73776;SDS011;62088;50.240;2.696;2022-10-16T07:36:26;6.43;;;2.00;;
73776;SDS011;62088;50.240;2.696;2022-10-16T07:38:54;5.45;;;2.10;;
73776;SDS011;62088;50.240;2.696;2022-10-16T07:41:25;9.20;;;2.00;;
73776;SDS011;62088;50.240;2.696;2022-10-16T07:43:53;5.93;;;1.73;;
73776;SDS011;62088;50.240;2.696;2022-10-16T07:46:21;6.60;;;1.90;;
73776;SDS011;62088;50.240;2.696;2022-10-16T07:48:49;11.07;;;2.45;;
73776;SDS011;62088;50.240;2.696;2022-10-16T07:51:17;4.90;;;2.15;;
73776;SDS011;62088;50.240;2.696;2022-10-16T07:53:46;8.90;;;2.30;;
73776;SDS011;62088;50.240;2.696;2022-10-16T07:56:14;7.93;;;2.30;;
73776;SDS011;62088;50.240;2.696;2022-10-16T07:58:42;7.57;;;2.60;;
73776;SDS011;62088;50.240;2.696;2022-10-16T08:01:10;5.53;;;1.98;;
73776;SDS011;62088;50.240;2.696;2022-10-16T08:03:43;6.10;;;1.95;;
73776;SDS011;62088;50.240;2.696;2022-10-16T08:06:11;8.48;;;2.17;;
73776;SDS011;62088;50.240;2.696;2022-10-16T08:08:39;7.95;;;2.40;;
73776;SDS011;62088;50.240;2.696;2022-10-16T08:11:06;6.90;;;2.47;;
73776;SDS011;62088;50.240;2.696;2022-10-16T08:13:33;8.05;;;2.20;;
73776;SDS011;62088;50.240;2.696;2022-10-16T08:16:01;7.70;;;2.05;;
73776;SDS011;62088;50.240;2.696;2022-10-16T08:18:29;5.38;;;2.00;;
73776;SDS011;62088;50.240;2.696;2022-10-16T08:20:59;6.32;;;2.05;;
73776;SDS011;62088;50.240;2.696;2022-10-16T08:23:27;11.77;;;2.40;;
73776;SDS011;62088;50.240;2.696;2022-10-16T08:25:55;5.53;;;1.98;;
73776;SDS011;62088;50.240;2.696;2022-10-16T08:28:23;5.88;;;2.00;;
73776;SDS011;62088;50.240;2.696;2022-10-16T08:30:50;5.20;;;1.85;;
73776;SDS011;62088;50.240;2.696;2022-10-16T08:33:17;6.40;;;2.00;;
73776;SDS011;62088;50.240;2.696;2022-10-16T08:35:53;9.00;;;1.92;;
73776;SDS011;62088;50.240;2.696;2022-10-16T08:38:20;11.07;;;2.00;;
73776;SDS011;62088;50.240;2.696;2022-10-16T08:40:47;9.10;;;2.17;;
73776;SDS011;62088;50.240;2.696;2022-10-16T08:48:52;11.65;;;1.80;;
73776;SDS011;62088;50.240;2.696;2022-10-16T08:53:57;7.05;;;1.55;;
73776;SDS011;62088;50.240;2.696;2022-10-16T08:56:27;7.93;;;1.77;;
73776;SDS011;62088;50.240;2.696;2022-10-16T08:58:55;7.70;;;1.90;;
73776;SDS011;62088;50.240;2.696;2022-10-16T09:01:38;11.43;;;1.90;;
73776;SDS011;62088;50.240;2.696;2022-10-16T09:12:55;9.32;;;1.85;;
73776;SDS011;62088;50.240;2.696;2022-10-16T09:21:09;6.72;;;2.20;;
73776;SDS011;62088;50.240;2.696;2022-10-16T09:26:20;6.18;;;1.58;;
73776;SDS011;62088;50.240;2.696;2022-10-16T09:28:49;7.40;;;1.77;;
73776;SDS011;62088;50.240;2.696;2022-10-16T09:31:19;7.63;;;1.63;;
73776;SDS011;62088;50.240;2.696;2022-10-16T09:33:50;6.68;;;1.80;;
73776;SDS011;62088;50.240;2.696;2022-10-16T09:36:26;6.15;;;1.63;;
73776;SDS011;62088;50.240;2.696;2022-10-16T09:39:05;9.85;;;1.88;;
73776;SDS011;62088;50.240;2.696;2022-10-16T09:41:37;5.28;;;1.30;;
73776;SDS011;62088;50.240;2.696;2022-10-16T09:46:45;7.30;;;1.65;;
73776;SDS011;62088;50.240;2.696;2022-10-16T09:49:23;6.18;;;1.63;;
73776;SDS011;62088;50.240;2.696;2022-10-16T09:51:51;7.78;;;1.75;;
73776;SDS011;62088;50.240;2.696;2022-10-16T09:54:31;6.10;;;1.45;;
73776;SDS011;62088;50.240;2.696;2022-10-16T09:57:05;3.97;;;1.35;;
73776;SDS011;62088;50.240;2.696;2022-10-16T09:59:34;6.03;;;1.60;;
73776;SDS011;62088;50.240;2.696;2022-10-16T10:02:01;6.47;;;1.55;;
73776;SDS011;62088;50.240;2.696;2022-10-16T10:04:37;6.80;;;1.50;;
73776;SDS011;62088;50.240;2.696;2022-10-16T10:07:15;4.95;;;1.50;;
73776;SDS011;62088;50.240;2.696;2022-10-16T10:09:46;5.25;;;1.60;;
73776;SDS011;62088;50.240;2.696;2022-10-16T10:12:17;6.18;;;1.67;;
73776;SDS011;62088;50.240;2.696;2022-10-16T10:14:56;8.60;;;1.70;;
73776;SDS011;62088;50.240;2.696;2022-10-16T10:17:25;4.55;;;1.35;;
73776;SDS011;62088;50.240;2.696;2022-10-16T10:19:57;5.55;;;1.50;;
73776;SDS011;62088;50.240;2.696;2022-10-16T10:22:47;7.70;;;1.60;;
73776;SDS011;62088;50.240;2.696;2022-10-16T10:25:15;7.95;;;1.52;;
73776;SDS011;62088;50.240;2.696;2022-10-16T10:33:47;7.35;;;2.03;;
73776;SDS011;62088;50.240;2.696;2022-10-16T10:36:37;6.35;;;1.65;;
73776;SDS011;62088;50.240;2.696;2022-10-16T10:39:26;11.90;;;1.98;;
73776;SDS011;62088;50.240;2.696;2022-10-16T10:45:37;7.57;;;1.98;;
73776;SDS011;62088;50.240;2.696;2022-10-16T10:50:46;5.57;;;1.37;;
73776;SDS011;62088;50.240;2.696;2022-10-16T11:02:26;4.68;;;1.60;;
73776;SDS011;62088;50.240;2.696;2022-10-16T11:07:41;6.47;;;1.70;;
73776;SDS011;62088;50.240;2.696;2022-10-16T11:10:19;5.72;;;1.75;;
73776;SDS011;62088;50.240;2.696;2022-10-16T11:12:55;11.65;;;2.00;;
73776;SDS011;62088;50.240;2.696;2022-10-16T11:15:41;7.15;;;1.70;;
73776;SDS011;62088;50.240;2.696;2022-10-16T11:18:21;8.93;;;2.13;;
73776;SDS011;62088;50.240;2.696;2022-10-16T11:20:54;4.80;;;1.50;;
73776;SDS011;62088;50.240;2.696;2022-10-16T11:24:09;4.65;;;1.60;;
73776;SDS011;62088;50.240;2.696;2022-10-16T11:26:26;6.63;;;1.70;;
73776;SDS011;62088;50.240;2.696;2022-10-16T11:28:57;5.72;;;1.30;;
73776;SDS011;62088;50.240;2.696;2022-10-16T11:31:36;5.13;;;1.50;;
73776;SDS011;62088;50.240;2.696;2022-10-16T11:34:24;6.60;;;1.58;;
73776;SDS011;62088;50.240;2.696;2022-10-16T11:37:14;5.28;;;1.40;;
73776;SDS011;62088;50.240;2.696;2022-10-16T11:39:45;7.28;;;1.42;;
73776;SDS011;62088;50.240;2.696;2022-10-16T11:42:16;7.53;;;1.70;;
73776;SDS011;62088;50.240;2.696;2022-10-16T11:44:51;5.22;;;1.15;;
73776;SDS011;62088;50.240;2.696;2022-10-16T11:53:19;4.78;;;1.17;;
73776;SDS011;62088;50.240;2.696;2022-10-16T11:55:48;4.63;;;1.30;;
73776;SDS011;62088;50.240;2.696;2022-10-16T12:01:22;10.05;;;1.50;;
73776;SDS011;62088;50.240;2.696;2022-10-16T12:07:04;5.47;;;1.20;;
73776;SDS011;62088;50.240;2.696;2022-10-16T12:09:39;5.22;;;1.27;;
73776;SDS011;62088;50.240;2.696;2022-10-16T12:12:27;7.45;;;1.40;;
73776;SDS011;62088;50.240;2.696;2022-10-16T12:15:15;6.82;;;1.50;;
73776;SDS011;62088;50.240;2.696;2022-10-16T12:18:21;10.35;;;1.70;;
73776;SDS011;62088;50.240;2.696;2022-10-16T12:20:58;5.78;;;1.20;;
73776;SDS011;62088;50.240;2.696;2022-10-16T12:23:32;6.07;;;1.30;;
73776;SDS011;62088;50.240;2.696;2022-10-16T12:26:02;5.43;;;1.40;;
73776;SDS011;62088;50.240;2.696;2022-10-16T12:28:31;6.45;;;1.20;;
73776;SDS011;62088;50.240;2.696;2022-10-16T12:31:00;6.93;;;1.10;;
73776;SDS011;62088;50.240;2.696;2022-10-16T12:33:30;6.85;;;1.45;;
73776;SDS011;62088;50.240;2.696;2022-10-16T12:36:03;6.57;;;1.20;;
73776;SDS011;62088;50.240;2.696;2022-10-16T12:38:47;6.72;;;1.38;;
73776;SDS011;62088;50.240;2.696;2022-10-16T12:41:26;4.53;;;1.20;;
73776;SDS011;62088;50.240;2.696;2022-10-16T12:43:55;11.70;;;1.80;;
73776;SDS011;62088;50.240;2.696;2022-10-16T12:46:26;5.40;;;1.27;;
73776;SDS011;62088;50.240;2.696;2022-10-16T12:49:16;5.75;;;1.35;;
73776;SDS011;62088;50.240;2.696;2022-10-16T12:51:50;5.78;;;1.20;;
73776;SDS011;62088;50.240;2.696;2022-10-16T12:54:31;5.93;;;1.40;;
73776;SDS011;62088;50.240;2.696;2022-10-16T13:00:25;7.25;;;1.40;;
73776;SDS011;62088;50.240;2.696;2022-10-16T13:06:08;7.50;;;2.00;;
73776;SDS011;62088;50.240;2.696;2022-10-16T13:08:54;6.05;;;1.40;;
73776;SDS011;62088;50.240;2.696;2022-10-16T13:20:21;7.97;;;1.73;;
73776;SDS011;62088;50.240;2.696;2022-10-16T13:23:24;5.35;;;1.52;;
73776;SDS011;62088;50.240;2.696;2022-10-16T13:26:17;8.10;;;1.42;;
73776;SDS011;62088;50.240;2.696;2022-10-16T13:29:02;5.90;;;1.70;;
73776;SDS011;62088;50.240;2.696;2022-10-16T13:31:29;5.88;;;1.60;;
73776;SDS011;62088;50.240;2.696;2022-10-16T13:33:58;9.27;;;1.63;;
73776;SDS011;62088;50.240;2.696;2022-10-16T13:36:29;6.70;;;1.30;;
73776;SDS011;62088;50.240;2.696;2022-10-16T13:39:14;6.05;;;1.70;;
73776;SDS011;62088;50.240;2.696;2022-10-16T13:41:43;6.60;;;1.90;;
73776;SDS011;62088;50.240;2.696;2022-10-16T13:44:12;7.45;;;1.55;;
73776;SDS011;62088;50.240;2.696;2022-10-16T13:46:43;5.88;;;1.92;;
73776;SDS011;62088;50.240;2.696;2022-10-16T13:49:14;7.30;;;1.92;;
73776;SDS011;62088;50.240;2.696;2022-10-16T13:51:56;6.80;;;2.35;;
73776;SDS011;62088;50.240;2.696;2022-10-16T13:54:26;4.10;;;1.80;;
73776;SDS011;62088;50.240;2.696;2022-10-16T13:56:55;7.22;;;1.80;;
73776;SDS011;62088;50.240;2.696;2022-10-16T13:59:34;4.80;;;1.30;;
73776;SDS011;62088;50.240;2.696;2022-10-16T14:02:26;5.47;;;1.40;;
73776;SDS011;62088;50.240;2.696;2022-10-16T14:05:10;7.60;;;1.45;;
73776;SDS011;62088;50.240;2.696;2022-10-16T14:07:40;5.40;;;1.40;;
73776;SDS011;62088;50.240;2.696;2022-10-16T14:10:30;5.50;;;1.48;;
73776;SDS011;62088;50.240;2.696;2022-10-16T14:13:07;7.03;;;1.70;;
73776;SDS011;62088;50.240;2.696;2022-10-16T14:15:45;4.90;;;1.35;;
73776;SDS011;62088;50.240;2.696;2022-10-16T14:18:18;7.20;;;1.92;;
73776;SDS011;62088;50.240;2.696;2022-10-16T14:20:49;7.70;;;1.42;;
73776;SDS011;62088;50.240;2.696;2022-10-16T14:23:21;6.07;;;1.30;;
73776;SDS011;62088;50.240;2.696;2022-10-16T14:28:38;5.93;;;1.10;;
73776;SDS011;62088;50.240;2.696;2022-10-16T14:33:46;5.00;;;1.20;;
73776;SDS011;62088;50.240;2.696;2022-10-16T14:36:13;4.70;;;1.33;;
73776;SDS011;62088;50.240;2.696;2022-10-16T14:39:00;2.63;;;1.00;;
73776;SDS011;62088;50.240;2.696;2022-10-16T14:41:30;3.30;;;1.10;;
73776;SDS011;62088;50.240;2.696;2022-10-16T14:44:02;4.25;;;1.20;;
73776;SDS011;62088;50.240;2.696;2022-10-16T14:46:38;3.92;;;1.10;;
73776;SDS011;62088;50.240;2.696;2022-10-16T14:51:37;4.35;;;1.20;;
73776;SDS011;62088;50.240;2.696;2022-10-16T14:54:10;2.47;;;1.00;;
73776;SDS011;62088;50.240;2.696;2022-10-16T14:59:16;3.85;;;1.10;;
73776;SDS011;62088;50.240;2.696;2022-10-16T15:01:45;3.33;;;1.20;;
73776;SDS011;62088;50.240;2.696;2022-10-16T15:04:13;4.55;;;1.00;;
73776;SDS011;62088;50.240;2.696;2022-10-16T15:06:41;5.18;;;1.30;;
73776;SDS011;62088;50.240;2.696;2022-10-16T15:09:09;2.90;;;1.30;;
73776;SDS011;62088;50.240;2.696;2022-10-16T15:11:36;7.15;;;2.03;;
73776;SDS011;62088;50.240;2.696;2022-10-16T15:14:03;4.80;;;2.00;;
73776;SDS011;62088;50.240;2.696;2022-10-16T15:16:30;7.95;;;2.42;;
73776;SDS011;62088;50.240;2.696;2022-10-16T15:18:57;4.50;;;2.38;;
73776;SDS011;62088;50.240;2.696;2022-10-16T15:21:29;5.38;;;2.08;;
73776;SDS011;62088;50.240;2.696;2022-10-16T15:23:58;6.53;;;2.72;;
73776;SDS011;62088;50.240;2.696;2022-10-16T15:26:26;3.85;;;1.80;;
73776;SDS011;62088;50.240;2.696;2022-10-16T15:28:55;5.07;;;2.10;;
73776;SDS011;62088;50.240;2.696;2022-10-16T15:31:22;8.25;;;2.25;;
73776;SDS011;62088;50.240;2.696;2022-10-16T15:33:50;4.13;;;1.90;;
73776;SDS011;62088;50.240;2.696;2022-10-16T15:36:33;4.10;;;1.60;;
73776;SDS011;62088;50.240;2.696;2022-10-16T15:39:03;6.22;;;1.45;;
73776;SDS011;62088;50.240;2.696;2022-10-16T15:41:31;5.38;;;1.75;;
73776;SDS011;62088;50.240;2.696;2022-10-16T15:43:58;3.83;;;1.10;;
73776;SDS011;62088;50.240;2.696;2022-10-16T15:46:25;4.25;;;1.20;;
73776;SDS011;62088;50.240;2.696;2022-10-16T15:48:55;2.42;;;0.90;;
73776;SDS011;62088;50.240;2.696;2022-10-16T15:51:23;2.78;;;1.15;;
73776;SDS011;62088;50.240;2.696;2022-10-16T15:53:53;1.83;;;0.80;;
73776;SDS011;62088;50.240;2.696;2022-10-16T15:56:23;2.97;;;0.90;;
73776;SDS011;62088;50.240;2.696;2022-10-16T15:58:52;4.13;;;1.30;;
73776;SDS011;62088;50.240;2.696;2022-10-16T16:01:20;1.98;;;0.90;;
73776;SDS011;62088;50.240;2.696;2022-10-16T16:03:48;2.53;;;1.02;;
73776;SDS011;62088;50.240;2.696;2022-10-16T16:06:19;3.15;;;0.90;;
73776;SDS011;62088;50.240;2.696;2022-10-16T16:08:46;3.40;;;0.93;;
73776;SDS011;62088;50.240;2.696;2022-10-16T16:11:14;3.15;;;0.70;;
73776;SDS011;62088;50.240;2.696;2022-10-16T16:13:42;2.17;;;0.95;;
73776;SDS011;62088;50.240;2.696;2022-10-16T16:16:14;5.20;;;0.90;;
73776;SDS011;62088;50.240;2.696;2022-10-16T16:18:42;3.10;;;1.40;;
73776;SDS011;62088;50.240;2.696;2022-10-16T16:21:10;2.25;;;0.90;;
73776;SDS011;62088;50.240;2.696;2022-10-16T16:23:38;2.20;;;0.88;;
73776;SDS011;62088;50.240;2.696;2022-10-16T16:26:13;2.55;;;0.85;;
73776;SDS011;62088;50.240;2.696;2022-10-16T16:28:53;4.13;;;0.95;;
73776;SDS011;62088;50.240;2.696;2022-10-16T16:31:26;2.33;;;1.08;;
73776;SDS011;62088;50.240;2.696;2022-10-16T16:33:54;5.35;;;1.10;;
73776;SDS011;62088;50.240;2.696;2022-10-16T16:36:23;2.08;;;0.98;;
73776;SDS011;62088;50.240;2.696;2022-10-16T16:38:51;3.55;;;1.27;;
73776;SDS011;62088;50.240;2.696;2022-10-16T16:41:20;4.68;;;1.77;;
73776;SDS011;62088;50.240;2.696;2022-10-16T16:43:48;5.65;;;1.77;;
73776;SDS011;62088;50.240;2.696;2022-10-16T16:46:17;4.22;;;1.85;;
73776;SDS011;62088;50.240;2.696;2022-10-16T16:48:45;5.15;;;1.88;;
73776;SDS011;62088;50.240;2.696;2022-10-16T16:51:14;3.58;;;1.58;;
73776;SDS011;62088;50.240;2.696;2022-10-16T16:53:43;4.72;;;1.63;;
73776;SDS011;62088;50.240;2.696;2022-10-16T16:56:11;4.07;;;1.90;;
73776;SDS011;62088;50.240;2.696;2022-10-16T16:58:38;6.57;;;1.70;;
73776;SDS011;62088;50.240;2.696;2022-10-16T17:01:06;4.65;;;1.90;;
73776;SDS011;62088;50.240;2.696;2022-10-16T17:03:51;4.60;;;1.75;;
73776;SDS011;62088;50.240;2.696;2022-10-16T17:06:20;3.75;;;1.60;;